sensor_id;sensor_type;location;lat;lon;timestamp;temperature;humidity
68867;SHT30;56451;44.804;20.476;2023-10-13T00:00:38;20.73;54.37
68867;SHT30;56451;44.804;20.476;2023-10-13T00:03:08;20.75;54.31
68867;SHT30;56451;44.804;20.476;2023-10-13T00:05:44;20.68;54.43
68867;SHT30;56451;44.804;20.476;2023-10-13T00:08:11;20.69;54.71
68867;SHT30;56451;44.804;20.476;2023-10-13T00:10:37;20.68;54.66
68867;SHT30;56451;44.804;20.476;2023-10-13T00:13:03;20.67;54.53
68867;SHT30;56451;44.804;20.476;2023-10-13T00:15:47;20.64;54.45
68867;SHT30;56451;44.804;20.476;2023-10-13T00:18:30;20.62;54.55
68867;SHT30;56451;44.804;20.476;2023-10-13T00:21:00;20.56;54.67
68867;SHT30;56451;44.804;20.476;2023-10-13T00:23:26;20.54;54.87
68867;SHT30;56451;44.804;20.476;2023-10-13T00:25:58;20.54;54.90
68867;SHT30;56451;44.804;20.476;2023-10-13T00:28:28;20.55;54.53
68867;SHT30;56451;44.804;20.476;2023-10-13T00:31:01;20.58;54.19
68867;SHT30;56451;44.804;20.476;2023-10-13T00:33:37;20.55;54.59
68867;SHT30;56451;44.804;20.476;2023-10-13T00:36:04;20.52;54.80
68867;SHT30;56451;44.804;20.476;2023-10-13T00:38:31;20.51;54.78
68867;SHT30;56451;44.804;20.476;2023-10-13T00:40:57;20.51;54.72
68867;SHT30;56451;44.804;20.476;2023-10-13T00:43:31;20.55;54.57
68867;SHT30;56451;44.804;20.476;2023-10-13T00:46:01;20.55;54.49
68867;SHT30;56451;44.804;20.476;2023-10-13T00:48:32;20.54;55.09
68867;SHT30;56451;44.804;20.476;2023-10-13T00:51:03;20.52;55.22
68867;SHT30;56451;44.804;20.476;2023-10-13T00:53:36;20.49;55.18
68867;SHT30;56451;44.804;20.476;2023-10-13T00:56:10;20.51;55.34
68867;SHT30;56451;44.804;20.476;2023-10-13T00:58:54;20.49;55.33
68867;SHT30;56451;44.804;20.476;2023-10-13T01:01:23;20.48;55.49
68867;SHT30;56451;44.804;20.476;2023-10-13T01:03:58;20.45;55.90
68867;SHT30;56451;44.804;20.476;2023-10-13T01:06:30;20.48;56.31
68867;SHT30;56451;44.804;20.476;2023-10-13T01:09:05;20.47;56.39
68867;SHT30;56451;44.804;20.476;2023-10-13T01:11:48;20.44;56.68
68867;SHT30;56451;44.804;20.476;2023-10-13T01:14:18;20.42;57.01
68867;SHT30;56451;44.804;20.476;2023-10-13T01:16:47;20.35;57.38
68867;SHT30;56451;44.804;20.476;2023-10-13T01:19:14;20.37;57.39
68867;SHT30;56451;44.804;20.476;2023-10-13T01:21:43;20.31;57.45
68867;SHT30;56451;44.804;20.476;2023-10-13T01:24:14;20.31;57.13
68867;SHT30;56451;44.804;20.476;2023-10-13T01:26:40;20.27;56.93
68867;SHT30;56451;44.804;20.476;2023-10-13T01:29:08;20.18;57.05
68867;SHT30;56451;44.804;20.476;2023-10-13T01:31:41;20.14;57.35
68867;SHT30;56451;44.804;20.476;2023-10-13T01:34:17;20.12;57.50
68867;SHT30;56451;44.804;20.476;2023-10-13T01:36:52;20.04;57.62
68867;SHT30;56451;44.804;20.476;2023-10-13T01:39:24;19.94;57.70
68867;SHT30;56451;44.804;20.476;2023-10-13T01:41:55;19.90;57.83
68867;SHT30;56451;44.804;20.476;2023-10-13T01:44:25;19.90;58.03
68867;SHT30;56451;44.804;20.476;2023-10-13T01:46:57;19.86;58.17
68867;SHT30;56451;44.804;20.476;2023-10-13T01:49:32;19.80;58.24
68867;SHT30;56451;44.804;20.476;2023-10-13T01:52:27;19.77;58.37
68867;SHT30;56451;44.804;20.476;2023-10-13T01:54:55;19.75;58.52
68867;SHT30;56451;44.804;20.476;2023-10-13T01:57:23;19.67;58.69
68867;SHT30;56451;44.804;20.476;2023-10-13T01:59:50;19.67;58.88
68867;SHT30;56451;44.804;20.476;2023-10-13T02:02:16;19.66;58.86
68867;SHT30;56451;44.804;20.476;2023-10-13T02:04:52;19.66;58.81
68867;SHT30;56451;44.804;20.476;2023-10-13T02:07:23;19.67;58.70
68867;SHT30;56451;44.804;20.476;2023-10-13T02:10:00;19.67;58.66
68867;SHT30;56451;44.804;20.476;2023-10-13T02:12:30;19.63;58.89
68867;SHT30;56451;44.804;20.476;2023-10-13T02:15:12;19.63;58.83
68867;SHT30;56451;44.804;20.476;2023-10-13T02:17:39;19.62;58.72
68867;SHT30;56451;44.804;20.476;2023-10-13T02:20:09;19.58;58.86
68867;SHT30;56451;44.804;20.476;2023-10-13T02:22:41;19.58;58.95
68867;SHT30;56451;44.804;20.476;2023-10-13T02:25:17;19.56;58.94
68867;SHT30;56451;44.804;20.476;2023-10-13T02:28:03;19.58;58.87
68867;SHT30;56451;44.804;20.476;2023-10-13T02:30:41;19.55;58.95
68867;SHT30;56451;44.804;20.476;2023-10-13T02:33:11;19.54;58.94
68867;SHT30;56451;44.804;20.476;2023-10-13T02:35:38;19.52;59.01
68867;SHT30;56451;44.804;20.476;2023-10-13T02:38:08;19.49;59.09
68867;SHT30;56451;44.804;20.476;2023-10-13T02:40:38;19.49;59.10
68867;SHT30;56451;44.804;20.476;2023-10-13T02:43:04;19.49;59.24
68867;SHT30;56451;44.804;20.476;2023-10-13T02:45:32;19.48;59.03
68867;SHT30;56451;44.804;20.476;2023-10-13T02:48:04;19.45;59.14
68867;SHT30;56451;44.804;20.476;2023-10-13T02:50:40;19.46;59.19
68867;SHT30;56451;44.804;20.476;2023-10-13T02:53:09;19.48;59.14
68867;SHT30;56451;44.804;20.476;2023-10-13T02:55:58;19.51;59.16
68867;SHT30;56451;44.804;20.476;2023-10-13T02:58:30;19.44;59.46
68867;SHT30;56451;44.804;20.476;2023-10-13T03:01:07;19.45;59.48
68867;SHT30;56451;44.804;20.476;2023-10-13T03:03:47;19.45;59.59
68867;SHT30;56451;44.804;20.476;2023-10-13T03:06:16;19.45;59.66
68867;SHT30;56451;44.804;20.476;2023-10-13T03:08:42;19.41;59.79
68867;SHT30;56451;44.804;20.476;2023-10-13T03:11:10;19.44;59.73
68867;SHT30;56451;44.804;20.476;2023-10-13T03:13:36;19.39;59.80
68867;SHT30;56451;44.804;20.476;2023-10-13T03:16:14;19.44;59.94
68867;SHT30;56451;44.804;20.476;2023-10-13T03:18:46;19.39;60.11
68867;SHT30;56451;44.804;20.476;2023-10-13T03:21:23;19.42;60.23
68867;SHT30;56451;44.804;20.476;2023-10-13T03:23:59;19.39;60.35
68867;SHT30;56451;44.804;20.476;2023-10-13T03:26:33;19.39;60.33
68867;SHT30;56451;44.804;20.476;2023-10-13T03:29:02;19.38;60.43
68867;SHT30;56451;44.804;20.476;2023-10-13T03:34:31;19.38;60.61
68867;SHT30;56451;44.804;20.476;2023-10-13T03:36:57;19.35;60.73
68867;SHT30;56451;44.804;20.476;2023-10-13T03:39:24;19.35;60.81
68867;SHT30;56451;44.804;20.476;2023-10-13T03:41:56;19.35;60.75
68867;SHT30;56451;44.804;20.476;2023-10-13T03:44:23;19.35;60.86
68867;SHT30;56451;44.804;20.476;2023-10-13T03:46:49;19.29;61.05
68867;SHT30;56451;44.804;20.476;2023-10-13T03:49:15;19.31;61.18
68867;SHT30;56451;44.804;20.476;2023-10-13T03:51:49;19.31;61.24
68867;SHT30;56451;44.804;20.476;2023-10-13T03:54:16;19.32;61.36
68867;SHT30;56451;44.804;20.476;2023-10-13T03:56:43;19.29;61.47
68867;SHT30;56451;44.804;20.476;2023-10-13T03:59:11;19.32;61.39
68867;SHT30;56451;44.804;20.476;2023-10-13T04:01:45;19.31;61.50
68867;SHT30;56451;44.804;20.476;2023-10-13T04:04:14;19.31;61.53
68867;SHT30;56451;44.804;20.476;2023-10-13T04:06:41;19.28;61.53
68867;SHT30;56451;44.804;20.476;2023-10-13T04:09:28;19.29;61.57
68867;SHT30;56451;44.804;20.476;2023-10-13T04:12:01;19.31;61.53
68867;SHT30;56451;44.804;20.476;2023-10-13T04:14:40;19.31;61.51
68867;SHT30;56451;44.804;20.476;2023-10-13T04:17:24;19.25;61.45
68867;SHT30;56451;44.804;20.476;2023-10-13T04:19:55;19.25;61.47
68867;SHT30;56451;44.804;20.476;2023-10-13T04:22:35;19.25;61.65
68867;SHT30;56451;44.804;20.476;2023-10-13T04:28:01;19.22;61.62
68867;SHT30;56451;44.804;20.476;2023-10-13T04:33:28;19.19;61.78
68867;SHT30;56451;44.804;20.476;2023-10-13T04:36:11;19.18;61.93
68867;SHT30;56451;44.804;20.476;2023-10-13T04:38:41;19.19;61.87
68867;SHT30;56451;44.804;20.476;2023-10-13T04:41:29;19.24;61.72
68867;SHT30;56451;44.804;20.476;2023-10-13T04:44:09;19.25;61.63
68867;SHT30;56451;44.804;20.476;2023-10-13T04:46:54;19.21;61.76
68867;SHT30;56451;44.804;20.476;2023-10-13T04:49:38;19.21;61.91
68867;SHT30;56451;44.804;20.476;2023-10-13T04:52:13;19.15;62.02
68867;SHT30;56451;44.804;20.476;2023-10-13T04:54:52;19.17;62.04
68867;SHT30;56451;44.804;20.476;2023-10-13T04:57:25;19.18;61.94
68867;SHT30;56451;44.804;20.476;2023-10-13T05:00:01;19.17;62.02
68867;SHT30;56451;44.804;20.476;2023-10-13T05:02:42;19.17;62.10
68867;SHT30;56451;44.804;20.476;2023-10-13T05:05:22;19.14;62.12
68867;SHT30;56451;44.804;20.476;2023-10-13T05:07:50;19.17;62.26
68867;SHT30;56451;44.804;20.476;2023-10-13T05:10:36;19.19;62.13
68867;SHT30;56451;44.804;20.476;2023-10-13T05:13:20;19.19;62.13
68867;SHT30;56451;44.804;20.476;2023-10-13T05:16:04;19.19;62.20
68867;SHT30;56451;44.804;20.476;2023-10-13T05:18:49;19.24;62.09
68867;SHT30;56451;44.804;20.476;2023-10-13T05:21:34;19.22;62.06
68867;SHT30;56451;44.804;20.476;2023-10-13T05:24:18;19.25;62.24
68867;SHT30;56451;44.804;20.476;2023-10-13T05:27:03;19.24;62.10
68867;SHT30;56451;44.804;20.476;2023-10-13T05:29:48;19.27;62.08
68867;SHT30;56451;44.804;20.476;2023-10-13T05:32:33;19.27;62.01
68867;SHT30;56451;44.804;20.476;2023-10-13T05:35:20;19.28;61.77
68867;SHT30;56451;44.804;20.476;2023-10-13T05:38:04;19.29;61.78
68867;SHT30;56451;44.804;20.476;2023-10-13T05:40:57;19.34;61.63
68867;SHT30;56451;44.804;20.476;2023-10-13T05:43:41;19.34;61.67
68867;SHT30;56451;44.804;20.476;2023-10-13T05:46:26;19.35;61.55
68867;SHT30;56451;44.804;20.476;2023-10-13T05:48:55;19.39;61.58
68867;SHT30;56451;44.804;20.476;2023-10-13T05:51:27;19.42;61.65
68867;SHT30;56451;44.804;20.476;2023-10-13T05:54:05;19.45;61.60
68867;SHT30;56451;44.804;20.476;2023-10-13T05:56:49;19.48;61.26
68867;SHT30;56451;44.804;20.476;2023-10-13T05:59:36;19.51;61.28
68867;SHT30;56451;44.804;20.476;2023-10-13T06:02:22;19.55;61.06
68867;SHT30;56451;44.804;20.476;2023-10-13T06:05:12;19.59;60.89
68867;SHT30;56451;44.804;20.476;2023-10-13T06:07:57;19.58;60.92
68867;SHT30;56451;44.804;20.476;2023-10-13T06:10:43;19.61;60.81
68867;SHT30;56451;44.804;20.476;2023-10-13T06:13:27;19.63;60.87
68867;SHT30;56451;44.804;20.476;2023-10-13T06:16:16;19.65;60.85
68867;SHT30;56451;44.804;20.476;2023-10-13T06:19:02;19.67;60.88
68867;SHT30;56451;44.804;20.476;2023-10-13T06:21:46;19.66;60.80
68867;SHT30;56451;44.804;20.476;2023-10-13T06:24:31;19.73;60.83
68867;SHT30;56451;44.804;20.476;2023-10-13T06:27:16;19.73;60.85
68867;SHT30;56451;44.804;20.476;2023-10-13T06:30:04;19.75;60.83
68867;SHT30;56451;44.804;20.476;2023-10-13T06:32:33;19.80;60.88
68867;SHT30;56451;44.804;20.476;2023-10-13T06:34:59;19.82;60.85
68867;SHT30;56451;44.804;20.476;2023-10-13T06:37:32;19.89;60.66
68867;SHT30;56451;44.804;20.476;2023-10-13T06:40:01;19.96;60.23
68867;SHT30;56451;44.804;20.476;2023-10-13T06:42:48;20.01;59.94
68867;SHT30;56451;44.804;20.476;2023-10-13T06:45:14;19.97;60.29
68867;SHT30;56451;44.804;20.476;2023-10-13T06:47:43;20.01;60.33
68867;SHT30;56451;44.804;20.476;2023-10-13T06:50:13;20.04;60.16
68867;SHT30;56451;44.804;20.476;2023-10-13T06:52:48;20.09;60.24
68867;SHT30;56451;44.804;20.476;2023-10-13T06:55:14;20.09;60.07
68867;SHT30;56451;44.804;20.476;2023-10-13T06:57:43;20.13;60.21
68867;SHT30;56451;44.804;20.476;2023-10-13T07:00:10;20.20;59.97
68867;SHT30;56451;44.804;20.476;2023-10-13T07:02:48;20.24;59.83
68867;SHT30;56451;44.804;20.476;2023-10-13T07:05:17;20.27;59.77
68867;SHT30;56451;44.804;20.476;2023-10-13T07:07:45;20.28;59.89
68867;SHT30;56451;44.804;20.476;2023-10-13T07:10:12;20.30;60.35
68867;SHT30;56451;44.804;20.476;2023-10-13T07:12:38;20.38;59.85
68867;SHT30;56451;44.804;20.476;2023-10-13T07:15:10;20.45;59.73
68867;SHT30;56451;44.804;20.476;2023-10-13T07:17:48;20.52;59.58
68867;SHT30;56451;44.804;20.476;2023-10-13T07:20:20;20.56;59.55
68867;SHT30;56451;44.804;20.476;2023-10-13T07:22:58;20.61;59.50
68867;SHT30;56451;44.804;20.476;2023-10-13T07:25:34;20.65;59.33
68867;SHT30;56451;44.804;20.476;2023-10-13T07:28:04;20.65;59.32
68867;SHT30;56451;44.804;20.476;2023-10-13T07:30:32;20.69;59.19
68867;SHT30;56451;44.804;20.476;2023-10-13T07:33:05;20.72;58.99
68867;SHT30;56451;44.804;20.476;2023-10-13T07:35:31;20.71;59.13
68867;SHT30;56451;44.804;20.476;2023-10-13T07:38:01;20.75;58.89
68867;SHT30;56451;44.804;20.476;2023-10-13T07:40:28;20.78;58.76
68867;SHT30;56451;44.804;20.476;2023-10-13T07:42:55;20.76;58.46
68867;SHT30;56451;44.804;20.476;2023-10-13T07:45:27;20.71;58.83
68867;SHT30;56451;44.804;20.476;2023-10-13T07:48:09;20.73;58.96
68867;SHT30;56451;44.804;20.476;2023-10-13T07:50:42;20.67;59.29
68867;SHT30;56451;44.804;20.476;2023-10-13T07:53:09;20.71;58.88
68867;SHT30;56451;44.804;20.476;2023-10-13T07:55:46;20.68;59.01
68867;SHT30;56451;44.804;20.476;2023-10-13T07:58:24;20.76;58.92
68867;SHT30;56451;44.804;20.476;2023-10-13T08:00:53;20.73;59.15
68867;SHT30;56451;44.804;20.476;2023-10-13T08:03:25;20.73;59.48
68867;SHT30;56451;44.804;20.476;2023-10-13T08:06:00;20.76;59.53
68867;SHT30;56451;44.804;20.476;2023-10-13T08:08:45;20.72;59.64
68867;SHT30;56451;44.804;20.476;2023-10-13T08:11:17;20.82;59.54
68867;SHT30;56451;44.804;20.476;2023-10-13T08:13:52;20.88;59.55
68867;SHT30;56451;44.804;20.476;2023-10-13T08:16:28;20.89;59.57
68867;SHT30;56451;44.804;20.476;2023-10-13T08:19:14;20.92;59.48
68867;SHT30;56451;44.804;20.476;2023-10-13T08:21:47;20.96;59.45
68867;SHT30;56451;44.804;20.476;2023-10-13T08:24:23;21.02;59.36
68867;SHT30;56451;44.804;20.476;2023-10-13T08:27:06;21.04;59.36
68867;SHT30;56451;44.804;20.476;2023-10-13T08:29:45;21.10;59.30
68867;SHT30;56451;44.804;20.476;2023-10-13T08:32:25;21.16;59.37
68867;SHT30;56451;44.804;20.476;2023-10-13T08:34:51;21.23;58.96
68867;SHT30;56451;44.804;20.476;2023-10-13T08:37:21;21.29;58.70
68867;SHT30;56451;44.804;20.476;2023-10-13T08:39:48;21.33;58.56
68867;SHT30;56451;44.804;20.476;2023-10-13T08:42:34;21.36;58.49
68867;SHT30;56451;44.804;20.476;2023-10-13T08:45:14;21.40;58.43
68867;SHT30;56451;44.804;20.476;2023-10-13T08:47:48;21.41;58.45
68867;SHT30;56451;44.804;20.476;2023-10-13T08:50:21;21.47;58.40
68867;SHT30;56451;44.804;20.476;2023-10-13T08:53:08;21.55;58.07
68867;SHT30;56451;44.804;20.476;2023-10-13T08:58:32;21.61;57.47
68867;SHT30;56451;44.804;20.476;2023-10-13T09:01:17;21.60;57.88
68867;SHT30;56451;44.804;20.476;2023-10-13T09:06:48;21.65;57.51
68867;SHT30;56451;44.804;20.476;2023-10-13T09:14:41;21.77;58.12
68867;SHT30;56451;44.804;20.476;2023-10-13T09:17:13;21.87;57.31
68867;SHT30;56451;44.804;20.476;2023-10-13T09:19:51;21.91;57.08
68867;SHT30;56451;44.804;20.476;2023-10-13T09:22:26;21.94;56.82
68867;SHT30;56451;44.804;20.476;2023-10-13T09:24:57;22.01;57.22
68867;SHT30;56451;44.804;20.476;2023-10-13T09:27:31;22.08;57.10
68867;SHT30;56451;44.804;20.476;2023-10-13T09:29:59;22.12;56.82
68867;SHT30;56451;44.804;20.476;2023-10-13T09:32:44;22.16;56.84
68867;SHT30;56451;44.804;20.476;2023-10-13T09:37:43;22.26;56.35
68867;SHT30;56451;44.804;20.476;2023-10-13T09:40:15;22.29;56.31
68867;SHT30;56451;44.804;20.476;2023-10-13T09:42:51;22.33;55.92
68867;SHT30;56451;44.804;20.476;2023-10-13T09:45:19;22.36;56.03
68867;SHT30;56451;44.804;20.476;2023-10-13T09:47:55;22.42;55.96
68867;SHT30;56451;44.804;20.476;2023-10-13T09:50:25;22.43;55.61
68867;SHT30;56451;44.804;20.476;2023-10-13T09:53:00;22.46;55.84
68867;SHT30;56451;44.804;20.476;2023-10-13T09:55:33;22.56;54.85
68867;SHT30;56451;44.804;20.476;2023-10-13T09:58:06;22.60;54.84
68867;SHT30;56451;44.804;20.476;2023-10-13T10:00:52;22.63;55.30
68867;SHT30;56451;44.804;20.476;2023-10-13T10:03:32;22.67;54.43
68867;SHT30;56451;44.804;20.476;2023-10-13T10:06:02;22.73;54.22
68867;SHT30;56451;44.804;20.476;2023-10-13T10:08:43;22.74;54.10
68867;SHT30;56451;44.804;20.476;2023-10-13T10:11:27;22.80;54.05
68867;SHT30;56451;44.804;20.476;2023-10-13T10:14:07;22.87;54.31
68867;SHT30;56451;44.804;20.476;2023-10-13T10:19:29;22.94;54.45
68867;SHT30;56451;44.804;20.476;2023-10-13T10:22:03;23.00;53.84
68867;SHT30;56451;44.804;20.476;2023-10-13T10:24:44;23.04;54.07
68867;SHT30;56451;44.804;20.476;2023-10-13T10:27:10;23.11;53.24
68867;SHT30;56451;44.804;20.476;2023-10-13T10:29:55;23.22;52.34
68867;SHT30;56451;44.804;20.476;2023-10-13T10:32:37;23.26;51.71
68867;SHT30;56451;44.804;20.476;2023-10-13T10:35:10;23.33;51.77
68867;SHT30;56451;44.804;20.476;2023-10-13T10:37:46;23.41;51.82
68867;SHT30;56451;44.804;20.476;2023-10-13T10:40:16;23.49;51.93
68867;SHT30;56451;44.804;20.476;2023-10-13T10:43:01;23.53;51.98
68867;SHT30;56451;44.804;20.476;2023-10-13T10:45:28;23.58;52.47
68867;SHT30;56451;44.804;20.476;2023-10-13T10:47:59;23.58;52.57
68867;SHT30;56451;44.804;20.476;2023-10-13T10:50:26;23.65;52.80
68867;SHT30;56451;44.804;20.476;2023-10-13T10:53:04;23.77;52.33
68867;SHT30;56451;44.804;20.476;2023-10-13T10:55:37;23.84;52.20
68867;SHT30;56451;44.804;20.476;2023-10-13T10:58:04;23.89;51.67
68867;SHT30;56451;44.804;20.476;2023-10-13T11:00:34;23.87;51.71
68867;SHT30;56451;44.804;20.476;2023-10-13T11:03:16;23.93;51.57
68867;SHT30;56451;44.804;20.476;2023-10-13T11:05:44;23.96;51.22
68867;SHT30;56451;44.804;20.476;2023-10-13T11:08:23;24.03;51.13
68867;SHT30;56451;44.804;20.476;2023-10-13T11:10:59;24.07;51.19
68867;SHT30;56451;44.804;20.476;2023-10-13T11:13:44;24.14;51.23
68867;SHT30;56451;44.804;20.476;2023-10-13T11:16:29;24.17;51.00
68867;SHT30;56451;44.804;20.476;2023-10-13T11:19:03;24.21;50.71
68867;SHT30;56451;44.804;20.476;2023-10-13T11:21:31;24.29;49.67
68867;SHT30;56451;44.804;20.476;2023-10-13T11:23:57;24.37;49.43
68867;SHT30;56451;44.804;20.476;2023-10-13T11:26:35;24.39;48.96
68867;SHT30;56451;44.804;20.476;2023-10-13T11:29:13;24.47;47.89
68867;SHT30;56451;44.804;20.476;2023-10-13T11:31:39;24.48;47.53
68867;SHT30;56451;44.804;20.476;2023-10-13T11:34:10;24.54;47.01
68867;SHT30;56451;44.804;20.476;2023-10-13T11:36:37;24.54;47.27
68867;SHT30;56451;44.804;20.476;2023-10-13T11:39:03;24.55;47.32
68867;SHT30;56451;44.804;20.476;2023-10-13T11:41:33;24.54;47.80
68867;SHT30;56451;44.804;20.476;2023-10-13T11:44:00;24.57;47.52
68867;SHT30;56451;44.804;20.476;2023-10-13T11:46:32;24.62;47.72
68867;SHT30;56451;44.804;20.476;2023-10-13T11:49:06;24.69;47.60
68867;SHT30;56451;44.804;20.476;2023-10-13T11:51:52;24.72;47.66
68867;SHT30;56451;44.804;20.476;2023-10-13T11:54:27;24.79;47.86
68867;SHT30;56451;44.804;20.476;2023-10-13T11:56:53;24.86;47.62
68867;SHT30;56451;44.804;20.476;2023-10-13T11:59:23;24.90;47.76
68867;SHT30;56451;44.804;20.476;2023-10-13T12:01:53;24.99;47.29
68867;SHT30;56451;44.804;20.476;2023-10-13T12:04:38;25.00;47.12
68867;SHT30;56451;44.804;20.476;2023-10-13T12:07:30;24.95;47.47
68867;SHT30;56451;44.804;20.476;2023-10-13T12:10:13;24.96;47.70
68867;SHT30;56451;44.804;20.476;2023-10-13T12:13:00;24.99;47.42
68867;SHT30;56451;44.804;20.476;2023-10-13T12:15:35;25.02;47.21
68867;SHT30;56451;44.804;20.476;2023-10-13T12:18:15;25.02;47.36
68867;SHT30;56451;44.804;20.476;2023-10-13T12:20:40;25.10;46.77
68867;SHT30;56451;44.804;20.476;2023-10-13T12:23:13;25.16;46.51
68867;SHT30;56451;44.804;20.476;2023-10-13T12:25:43;25.22;46.39
68867;SHT30;56451;44.804;20.476;2023-10-13T12:28:25;25.27;46.43
68867;SHT30;56451;44.804;20.476;2023-10-13T12:30:55;25.26;46.72
68867;SHT30;56451;44.804;20.476;2023-10-13T12:33:25;25.33;46.48
68867;SHT30;56451;44.804;20.476;2023-10-13T12:38:39;25.43;46.19
68867;SHT30;56451;44.804;20.476;2023-10-13T12:41:14;25.48;46.10
68867;SHT30;56451;44.804;20.476;2023-10-13T12:44:00;25.57;45.86
68867;SHT30;56451;44.804;20.476;2023-10-13T12:46:45;25.65;45.46
68867;SHT30;56451;44.804;20.476;2023-10-13T12:49:29;25.68;45.74
68867;SHT30;56451;44.804;20.476;2023-10-13T12:52:07;25.70;45.77
68867;SHT30;56451;44.804;20.476;2023-10-13T12:54:43;25.71;45.69
68867;SHT30;56451;44.804;20.476;2023-10-13T12:57:16;25.77;45.77
68867;SHT30;56451;44.804;20.476;2023-10-13T12:59:42;25.77;45.65
68867;SHT30;56451;44.804;20.476;2023-10-13T13:02:09;25.84;45.49
68867;SHT30;56451;44.804;20.476;2023-10-13T13:04:41;25.85;45.47
68867;SHT30;56451;44.804;20.476;2023-10-13T13:07:10;25.99;45.33
68867;SHT30;56451;44.804;20.476;2023-10-13T13:09:43;26.03;45.03
68867;SHT30;56451;44.804;20.476;2023-10-13T13:12:08;26.08;44.91
68867;SHT30;56451;44.804;20.476;2023-10-13T13:14:38;26.13;44.60
68867;SHT30;56451;44.804;20.476;2023-10-13T13:17:07;26.16;44.54
68867;SHT30;56451;44.804;20.476;2023-10-13T13:19:34;26.15;44.61
68867;SHT30;56451;44.804;20.476;2023-10-13T13:22:05;26.18;44.47
68867;SHT30;56451;44.804;20.476;2023-10-13T13:24:41;26.23;44.23
68867;SHT30;56451;44.804;20.476;2023-10-13T13:27:11;26.23;44.68
68867;SHT30;56451;44.804;20.476;2023-10-13T13:29:44;26.23;45.07
68867;SHT30;56451;44.804;20.476;2023-10-13T13:32:10;26.23;45.46
68867;SHT30;56451;44.804;20.476;2023-10-13T13:34:52;26.25;46.04
68867;SHT30;56451;44.804;20.476;2023-10-13T13:37:44;26.26;46.13
68867;SHT30;56451;44.804;20.476;2023-10-13T13:40:11;26.33;46.15
68867;SHT30;56451;44.804;20.476;2023-10-13T13:42:45;26.33;46.33
68867;SHT30;56451;44.804;20.476;2023-10-13T13:47:53;26.43;46.56
68867;SHT30;56451;44.804;20.476;2023-10-13T13:50:24;26.47;46.18
68867;SHT30;56451;44.804;20.476;2023-10-13T13:52:51;26.51;45.85
68867;SHT30;56451;44.804;20.476;2023-10-13T13:55:19;26.53;45.73
68867;SHT30;56451;44.804;20.476;2023-10-13T13:57:45;26.50;45.54
68867;SHT30;56451;44.804;20.476;2023-10-13T14:00:12;26.46;45.52
68867;SHT30;56451;44.804;20.476;2023-10-13T14:02:57;26.40;45.91
68867;SHT30;56451;44.804;20.476;2023-10-13T14:05:23;26.43;46.10
68867;SHT30;56451;44.804;20.476;2023-10-13T14:07:49;26.40;46.28
68867;SHT30;56451;44.804;20.476;2023-10-13T14:10:19;26.40;46.41
68867;SHT30;56451;44.804;20.476;2023-10-13T14:13:00;26.41;46.20
68867;SHT30;56451;44.804;20.476;2023-10-13T14:15:38;26.46;46.22
68867;SHT30;56451;44.804;20.476;2023-10-13T14:18:10;26.53;45.64
68867;SHT30;56451;44.804;20.476;2023-10-13T14:20:41;26.54;45.52
68867;SHT30;56451;44.804;20.476;2023-10-13T14:23:08;26.60;45.55
68867;SHT30;56451;44.804;20.476;2023-10-13T14:25:38;26.65;45.29
68867;SHT30;56451;44.804;20.476;2023-10-13T14:28:05;26.64;45.44
68867;SHT30;56451;44.804;20.476;2023-10-13T14:30:31;26.61;45.63
68867;SHT30;56451;44.804;20.476;2023-10-13T14:32:57;26.61;45.69
68867;SHT30;56451;44.804;20.476;2023-10-13T14:35:26;26.69;45.69
68867;SHT30;56451;44.804;20.476;2023-10-13T14:37:52;26.70;45.51
68867;SHT30;56451;44.804;20.476;2023-10-13T14:40:19;26.74;45.38
68867;SHT30;56451;44.804;20.476;2023-10-13T14:42:47;26.74;45.29
68867;SHT30;56451;44.804;20.476;2023-10-13T14:45:14;26.76;45.11
68867;SHT30;56451;44.804;20.476;2023-10-13T14:47:43;26.73;45.54
68867;SHT30;56451;44.804;20.476;2023-10-13T14:50:10;26.73;45.25
68867;SHT30;56451;44.804;20.476;2023-10-13T14:52:43;26.76;45.02
68867;SHT30;56451;44.804;20.476;2023-10-13T14:55:09;26.74;45.02
68867;SHT30;56451;44.804;20.476;2023-10-13T14:57:48;26.78;44.95
68867;SHT30;56451;44.804;20.476;2023-10-13T15:00:16;26.74;45.24
68867;SHT30;56451;44.804;20.476;2023-10-13T15:02:53;26.76;45.51
68867;SHT30;56451;44.804;20.476;2023-10-13T15:05:20;26.77;45.28
68867;SHT30;56451;44.804;20.476;2023-10-13T15:07:46;26.76;44.97
68867;SHT30;56451;44.804;20.476;2023-10-13T15:10:15;26.73;45.02
68867;SHT30;56451;44.804;20.476;2023-10-13T15:12:44;26.73;45.17
68867;SHT30;56451;44.804;20.476;2023-10-13T15:15:10;26.71;45.22
68867;SHT30;56451;44.804;20.476;2023-10-13T15:17:47;26.70;45.18
68867;SHT30;56451;44.804;20.476;2023-10-13T15:20:13;26.65;45.05
68867;SHT30;56451;44.804;20.476;2023-10-13T15:22:43;26.65;45.11
68867;SHT30;56451;44.804;20.476;2023-10-13T15:25:09;26.65;44.91
68867;SHT30;56451;44.804;20.476;2023-10-13T15:27:47;26.59;45.28
68867;SHT30;56451;44.804;20.476;2023-10-13T15:30:24;26.53;45.32
68867;SHT30;56451;44.804;20.476;2023-10-13T15:32:52;26.49;45.38
68867;SHT30;56451;44.804;20.476;2023-10-13T15:35:19;26.43;45.52
68867;SHT30;56451;44.804;20.476;2023-10-13T15:37:49;26.40;45.65
68867;SHT30;56451;44.804;20.476;2023-10-13T15:40:17;26.36;45.59
68867;SHT30;56451;44.804;20.476;2023-10-13T15:42:43;26.30;45.86
68867;SHT30;56451;44.804;20.476;2023-10-13T15:45:11;26.26;45.98
68867;SHT30;56451;44.804;20.476;2023-10-13T15:47:44;26.16;46.08
68867;SHT30;56451;44.804;20.476;2023-10-13T15:50:13;26.11;46.23
68867;SHT30;56451;44.804;20.476;2023-10-13T15:52:42;26.08;46.46
68867;SHT30;56451;44.804;20.476;2023-10-13T15:55:15;26.01;46.51
68867;SHT30;56451;44.804;20.476;2023-10-13T15:57:43;25.96;46.68
68867;SHT30;56451;44.804;20.476;2023-10-13T16:00:11;25.92;46.40
68867;SHT30;56451;44.804;20.476;2023-10-13T16:02:58;25.84;46.71
68867;SHT30;56451;44.804;20.476;2023-10-13T16:05:32;25.77;47.06
68867;SHT30;56451;44.804;20.476;2023-10-13T16:08:01;25.71;46.89
68867;SHT30;56451;44.804;20.476;2023-10-13T16:10:29;25.60;47.38
68867;SHT30;56451;44.804;20.476;2023-10-13T16:12:55;25.54;47.26
68867;SHT30;56451;44.804;20.476;2023-10-13T16:15:23;25.48;47.20
68867;SHT30;56451;44.804;20.476;2023-10-13T16:17:49;25.41;47.37
68867;SHT30;56451;44.804;20.476;2023-10-13T16:20:19;25.34;47.76
68867;SHT30;56451;44.804;20.476;2023-10-13T16:22:47;25.28;48.02
68867;SHT30;56451;44.804;20.476;2023-10-13T16:25:15;25.23;48.48